sensor_id;sensor_type;location;lat;lon;timestamp;P1;durP1;ratioP1;P2;durP2;ratioP2
52043;SDS011;38053;53.100;6.078;2023-05-08T00:01:19;16.27;;;12.70;;
52043;SDS011;38053;53.100;6.078;2023-05-08T00:03:44;18.27;;;13.73;;
52043;SDS011;38053;53.100;6.078;2023-05-08T00:06:10;17.98;;;14.65;;
52043;SDS011;38053;53.100;6.078;2023-05-08T00:08:36;17.00;;;14.60;;
52043;SDS011;38053;53.100;6.078;2023-05-08T00:11:01;17.98;;;14.18;;
52043;SDS011;38053;53.100;6.078;2023-05-08T00:13:27;17.00;;;13.77;;
52043;SDS011;38053;53.100;6.078;2023-05-08T00:15:53;18.02;;;13.82;;
52043;SDS011;38053;53.100;6.078;2023-05-08T00:18:18;17.00;;;13.40;;
52043;SDS011;38053;53.100;6.078;2023-05-08T00:20:44;16.20;;;14.48;;
52043;SDS011;38053;53.100;6.078;2023-05-08T00:23:10;19.17;;;13.52;;
52043;SDS011;38053;53.100;6.078;2023-05-08T00:25:35;16.27;;;14.05;;
52043;SDS011;38053;53.100;6.078;2023-05-08T00:28:01;17.05;;;13.57;;
52043;SDS011;38053;53.100;6.078;2023-05-08T00:30:27;20.73;;;14.50;;
52043;SDS011;38053;53.100;6.078;2023-05-08T00:32:53;15.95;;;13.65;;
52043;SDS011;38053;53.100;6.078;2023-05-08T00:35:18;18.50;;;13.73;;
52043;SDS011;38053;53.100;6.078;2023-05-08T00:37:44;17.75;;;15.07;;
52043;SDS011;38053;53.100;6.078;2023-05-08T00:40:10;17.70;;;15.02;;
52043;SDS011;38053;53.100;6.078;2023-05-08T00:42:36;18.33;;;14.02;;
52043;SDS011;38053;53.100;6.078;2023-05-08T00:45:02;18.98;;;14.65;;
52043;SDS011;38053;53.100;6.078;2023-05-08T00:47:28;19.95;;;15.27;;
52043;SDS011;38053;53.100;6.078;2023-05-08T00:49:56;17.45;;;15.48;;
52043;SDS011;38053;53.100;6.078;2023-05-08T00:52:23;19.20;;;15.27;;
52043;SDS011;38053;53.100;6.078;2023-05-08T00:54:52;18.23;;;14.95;;
52043;SDS011;38053;53.100;6.078;2023-05-08T00:57:18;18.50;;;14.38;;
52043;SDS011;38053;53.100;6.078;2023-05-08T00:59:45;18.30;;;14.48;;
52043;SDS011;38053;53.100;6.078;2023-05-08T01:02:13;17.65;;;15.18;;
52043;SDS011;38053;53.100;6.078;2023-05-08T01:04:38;19.45;;;16.23;;
52043;SDS011;38053;53.100;6.078;2023-05-08T01:07:06;18.98;;;15.40;;
52043;SDS011;38053;53.100;6.078;2023-05-08T01:09:32;17.73;;;14.63;;
52043;SDS011;38053;53.100;6.078;2023-05-08T01:17:42;19.75;;;15.55;;
52043;SDS011;38053;53.100;6.078;2023-05-08T01:20:31;18.80;;;15.05;;
52043;SDS011;38053;53.100;6.078;2023-05-08T01:37:33;18.85;;;15.35;;
52043;SDS011;38053;53.100;6.078;2023-05-08T01:45:56;20.05;;;15.85;;
52043;SDS011;38053;53.100;6.078;2023-05-08T01:48:31;20.55;;;16.95;;
52043;SDS011;38053;53.100;6.078;2023-05-08T01:51:05;23.67;;;17.92;;
52043;SDS011;38053;53.100;6.078;2023-05-08T01:53:47;20.88;;;17.05;;
52043;SDS011;38053;53.100;6.078;2023-05-08T01:56:18;23.20;;;17.10;;
52043;SDS011;38053;53.100;6.078;2023-05-08T01:58:47;24.73;;;18.63;;
52043;SDS011;38053;53.100;6.078;2023-05-08T02:01:17;23.55;;;18.25;;
52043;SDS011;38053;53.100;6.078;2023-05-08T02:03:46;22.80;;;17.03;;
52043;SDS011;38053;53.100;6.078;2023-05-08T02:06:14;19.42;;;16.75;;
52043;SDS011;38053;53.100;6.078;2023-05-08T02:08:43;22.10;;;18.98;;
52043;SDS011;38053;53.100;6.078;2023-05-08T02:11:09;21.38;;;17.77;;
52043;SDS011;38053;53.100;6.078;2023-05-08T02:13:37;21.23;;;17.98;;
52043;SDS011;38053;53.100;6.078;2023-05-08T02:16:04;22.35;;;18.17;;
52043;SDS011;38053;53.100;6.078;2023-05-08T02:18:33;23.33;;;19.23;;
52043;SDS011;38053;53.100;6.078;2023-05-08T02:21:01;24.45;;;19.13;;
52043;SDS011;38053;53.100;6.078;2023-05-08T02:23:28;20.63;;;18.40;;
52043;SDS011;38053;53.100;6.078;2023-05-08T02:25:57;25.48;;;17.17;;
52043;SDS011;38053;53.100;6.078;2023-05-08T02:28:25;25.25;;;18.83;;
52043;SDS011;38053;53.100;6.078;2023-05-08T02:30:53;21.77;;;18.02;;
52043;SDS011;38053;53.100;6.078;2023-05-08T02:33:20;22.77;;;18.00;;
52043;SDS011;38053;53.100;6.078;2023-05-08T02:35:48;21.00;;;16.98;;
52043;SDS011;38053;53.100;6.078;2023-05-08T02:38:14;21.38;;;17.55;;
52043;SDS011;38053;53.100;6.078;2023-05-08T02:40:48;27.58;;;18.95;;
52043;SDS011;38053;53.100;6.078;2023-05-08T02:43:18;22.83;;;19.35;;
52043;SDS011;38053;53.100;6.078;2023-05-08T02:45:45;22.35;;;17.83;;
52043;SDS011;38053;53.100;6.078;2023-05-08T02:48:19;25.30;;;20.00;;
52043;SDS011;38053;53.100;6.078;2023-05-08T02:53:35;24.05;;;18.13;;
52043;SDS011;38053;53.100;6.078;2023-05-08T02:56:09;25.00;;;19.30;;
52043;SDS011;38053;53.100;6.078;2023-05-08T02:58:48;21.25;;;17.35;;
52043;SDS011;38053;53.100;6.078;2023-05-08T03:01:26;23.30;;;18.85;;
52043;SDS011;38053;53.100;6.078;2023-05-08T03:04:04;23.77;;;18.35;;
52043;SDS011;38053;53.100;6.078;2023-05-08T03:06:35;25.45;;;19.30;;
52043;SDS011;38053;53.100;6.078;2023-05-08T03:09:07;25.50;;;18.95;;
52043;SDS011;38053;53.100;6.078;2023-05-08T03:11:41;22.95;;;19.15;;
52043;SDS011;38053;53.100;6.078;2023-05-08T03:14:09;22.98;;;19.20;;
52043;SDS011;38053;53.100;6.078;2023-05-08T03:16:38;22.00;;;18.20;;
52043;SDS011;38053;53.100;6.078;2023-05-08T03:19:10;23.63;;;17.63;;
52043;SDS011;38053;53.100;6.078;2023-05-08T03:21:44;21.58;;;17.00;;
52043;SDS011;38053;53.100;6.078;2023-05-08T03:24:13;21.98;;;18.23;;
52043;SDS011;38053;53.100;6.078;2023-05-08T03:26:41;22.17;;;17.77;;
52043;SDS011;38053;53.100;6.078;2023-05-08T03:29:08;21.52;;;18.00;;
52043;SDS011;38053;53.100;6.078;2023-05-08T03:31:37;25.55;;;18.63;;
52043;SDS011;38053;53.100;6.078;2023-05-08T03:34:04;23.02;;;19.05;;
52043;SDS011;38053;53.100;6.078;2023-05-08T03:36:32;23.42;;;18.80;;
52043;SDS011;38053;53.100;6.078;2023-05-08T03:38:59;26.35;;;18.23;;
52043;SDS011;38053;53.100;6.078;2023-05-08T03:41:25;21.05;;;18.15;;
52043;SDS011;38053;53.100;6.078;2023-05-08T03:43:51;22.20;;;17.58;;
52043;SDS011;38053;53.100;6.078;2023-05-08T03:46:18;24.33;;;19.55;;
52043;SDS011;38053;53.100;6.078;2023-05-08T03:48:46;27.73;;;17.98;;
52043;SDS011;38053;53.100;6.078;2023-05-08T03:51:14;22.88;;;17.63;;
52043;SDS011;38053;53.100;6.078;2023-05-08T03:53:41;21.98;;;19.23;;
52043;SDS011;38053;53.100;6.078;2023-05-08T03:56:06;21.63;;;18.10;;
52043;SDS011;38053;53.100;6.078;2023-05-08T04:15:09;22.10;;;19.02;;
52043;SDS011;38053;53.100;6.078;2023-05-08T04:17:42;21.63;;;17.35;;
52043;SDS011;38053;53.100;6.078;2023-05-08T04:20:14;21.90;;;18.25;;
52043;SDS011;38053;53.100;6.078;2023-05-08T04:22:43;22.33;;;18.10;;
52043;SDS011;38053;53.100;6.078;2023-05-08T04:25:10;21.90;;;17.02;;
52043;SDS011;38053;53.100;6.078;2023-05-08T04:27:39;24.25;;;17.90;;
52043;SDS011;38053;53.100;6.078;2023-05-08T04:30:06;25.65;;;19.42;;
52043;SDS011;38053;53.100;6.078;2023-05-08T04:32:33;22.42;;;17.67;;
52043;SDS011;38053;53.100;6.078;2023-05-08T04:35:00;20.00;;;16.52;;
52043;SDS011;38053;53.100;6.078;2023-05-08T04:37:27;21.67;;;16.67;;
52043;SDS011;38053;53.100;6.078;2023-05-08T04:39:55;21.98;;;18.40;;
52043;SDS011;38053;53.100;6.078;2023-05-08T04:42:22;24.58;;;19.83;;
52043;SDS011;38053;53.100;6.078;2023-05-08T04:44:48;22.20;;;17.83;;
52043;SDS011;38053;53.100;6.078;2023-05-08T04:47:14;23.00;;;18.27;;
52043;SDS011;38053;53.100;6.078;2023-05-08T04:49:40;23.00;;;17.58;;
52043;SDS011;38053;53.100;6.078;2023-05-08T04:52:06;22.67;;;17.52;;
52043;SDS011;38053;53.100;6.078;2023-05-08T04:54:32;24.65;;;19.00;;
52043;SDS011;38053;53.100;6.078;2023-05-08T04:56:57;19.17;;;16.48;;
52043;SDS011;38053;53.100;6.078;2023-05-08T04:59:23;22.98;;;16.30;;
52043;SDS011;38053;53.100;6.078;2023-05-08T05:01:50;22.27;;;16.77;;
52043;SDS011;38053;53.100;6.078;2023-05-08T05:04:15;24.42;;;18.33;;
52043;SDS011;38053;53.100;6.078;2023-05-08T05:06:41;20.42;;;17.60;;
52043;SDS011;38053;53.100;6.078;2023-05-08T05:09:07;22.02;;;16.13;;
52043;SDS011;38053;53.100;6.078;2023-05-08T05:11:33;22.42;;;17.15;;
52043;SDS011;38053;53.100;6.078;2023-05-08T05:13:59;20.50;;;16.88;;
52043;SDS011;38053;53.100;6.078;2023-05-08T05:16:25;20.52;;;17.38;;
52043;SDS011;38053;53.100;6.078;2023-05-08T05:18:51;21.45;;;16.60;;
52043;SDS011;38053;53.100;6.078;2023-05-08T05:21:17;25.33;;;17.42;;
52043;SDS011;38053;53.100;6.078;2023-05-08T05:23:43;21.15;;;16.33;;
52043;SDS011;38053;53.100;6.078;2023-05-08T05:26:09;20.63;;;16.38;;
52043;SDS011;38053;53.100;6.078;2023-05-08T05:28:35;25.75;;;19.13;;
52043;SDS011;38053;53.100;6.078;2023-05-08T05:31:01;22.23;;;17.42;;
52043;SDS011;38053;53.100;6.078;2023-05-08T05:33:26;21.33;;;16.40;;
52043;SDS011;38053;53.100;6.078;2023-05-08T05:35:52;19.98;;;17.45;;
52043;SDS011;38053;53.100;6.078;2023-05-08T05:38:18;18.63;;;15.65;;
52043;SDS011;38053;53.100;6.078;2023-05-08T05:40:44;20.88;;;16.27;;
52043;SDS011;38053;53.100;6.078;2023-05-08T05:43:09;18.25;;;15.75;;
52043;SDS011;38053;53.100;6.078;2023-05-08T05:45:35;20.15;;;16.27;;
52043;SDS011;38053;53.100;6.078;2023-05-08T05:48:01;20.00;;;15.40;;
52043;SDS011;38053;53.100;6.078;2023-05-08T05:50:27;18.30;;;15.50;;
52043;SDS011;38053;53.100;6.078;2023-05-08T05:52:53;19.67;;;16.00;;
52043;SDS011;38053;53.100;6.078;2023-05-08T05:55:19;19.08;;;15.68;;
52043;SDS011;38053;53.100;6.078;2023-05-08T05:57:46;20.17;;;15.68;;
52043;SDS011;38053;53.100;6.078;2023-05-08T06:00:12;20.13;;;16.30;;
52043;SDS011;38053;53.100;6.078;2023-05-08T06:02:38;22.25;;;17.08;;
52043;SDS011;38053;53.100;6.078;2023-05-08T06:05:05;18.60;;;15.27;;
52043;SDS011;38053;53.100;6.078;2023-05-08T06:07:31;18.38;;;15.80;;
52043;SDS011;38053;53.100;6.078;2023-05-08T06:09:57;19.98;;;15.95;;
52043;SDS011;38053;53.100;6.078;2023-05-08T06:12:23;19.33;;;15.50;;
52043;SDS011;38053;53.100;6.078;2023-05-08T06:14:50;19.58;;;15.88;;
52043;SDS011;38053;53.100;6.078;2023-05-08T06:17:16;20.63;;;17.05;;
52043;SDS011;38053;53.100;6.078;2023-05-08T06:19:43;21.13;;;16.08;;
52043;SDS011;38053;53.100;6.078;2023-05-08T06:22:09;21.13;;;15.88;;
52043;SDS011;38053;53.100;6.078;2023-05-08T06:24:35;21.75;;;17.55;;
52043;SDS011;38053;53.100;6.078;2023-05-08T06:27:01;21.38;;;16.38;;
52043;SDS011;38053;53.100;6.078;2023-05-08T06:29:26;19.67;;;15.82;;
52043;SDS011;38053;53.100;6.078;2023-05-08T06:31:52;23.05;;;17.40;;
52043;SDS011;38053;53.100;6.078;2023-05-08T06:34:18;21.33;;;16.20;;
52043;SDS011;38053;53.100;6.078;2023-05-08T06:36:44;17.80;;;15.18;;
52043;SDS011;38053;53.100;6.078;2023-05-08T06:39:09;21.33;;;16.08;;
52043;SDS011;38053;53.100;6.078;2023-05-08T06:41:35;17.33;;;14.48;;
52043;SDS011;38053;53.100;6.078;2023-05-08T06:44:01;19.13;;;16.02;;
52043;SDS011;38053;53.100;6.078;2023-05-08T06:46:27;18.25;;;15.25;;
52043;SDS011;38053;53.100;6.078;2023-05-08T06:48:53;19.42;;;16.05;;
52043;SDS011;38053;53.100;6.078;2023-05-08T06:51:19;20.55;;;15.20;;
52043;SDS011;38053;53.100;6.078;2023-05-08T06:53:47;20.02;;;14.32;;
52043;SDS011;38053;53.100;6.078;2023-05-08T06:56:13;17.95;;;14.65;;
52043;SDS011;38053;53.100;6.078;2023-05-08T06:58:38;20.05;;;15.50;;
52043;SDS011;38053;53.100;6.078;2023-05-08T07:01:04;20.15;;;14.98;;
52043;SDS011;38053;53.100;6.078;2023-05-08T07:03:30;19.48;;;16.05;;
52043;SDS011;38053;53.100;6.078;2023-05-08T07:05:56;20.30;;;15.95;;
52043;SDS011;38053;53.100;6.078;2023-05-08T07:08:21;17.20;;;13.60;;
52043;SDS011;38053;53.100;6.078;2023-05-08T07:10:47;21.33;;;14.88;;
52043;SDS011;38053;53.100;6.078;2023-05-08T07:13:13;17.45;;;14.73;;
52043;SDS011;38053;53.100;6.078;2023-05-08T07:15:38;17.48;;;13.70;;
52043;SDS011;38053;53.100;6.078;2023-05-08T07:18:04;21.88;;;15.30;;
52043;SDS011;38053;53.100;6.078;2023-05-08T07:20:30;16.70;;;14.35;;
52043;SDS011;38053;53.100;6.078;2023-05-08T07:22:56;16.98;;;15.18;;
52043;SDS011;38053;53.100;6.078;2023-05-08T07:25:21;18.10;;;15.55;;
52043;SDS011;38053;53.100;6.078;2023-05-08T07:27:47;17.88;;;14.88;;
52043;SDS011;38053;53.100;6.078;2023-05-08T07:30:13;17.02;;;14.63;;
52043;SDS011;38053;53.100;6.078;2023-05-08T07:32:39;16.05;;;13.90;;
52043;SDS011;38053;53.100;6.078;2023-05-08T07:35:05;15.80;;;13.70;;
52043;SDS011;38053;53.100;6.078;2023-05-08T07:37:33;18.35;;;15.25;;
52043;SDS011;38053;53.100;6.078;2023-05-08T07:39:59;16.85;;;14.57;;
52043;SDS011;38053;53.100;6.078;2023-05-08T07:42:25;16.88;;;14.68;;
52043;SDS011;38053;53.100;6.078;2023-05-08T07:44:50;16.92;;;14.50;;
52043;SDS011;38053;53.100;6.078;2023-05-08T07:47:16;14.98;;;13.00;;
52043;SDS011;38053;53.100;6.078;2023-05-08T07:49:42;16.70;;;14.00;;
52043;SDS011;38053;53.100;6.078;2023-05-08T07:52:07;17.55;;;14.07;;
52043;SDS011;38053;53.100;6.078;2023-05-08T07:54:33;17.25;;;14.02;;
52043;SDS011;38053;53.100;6.078;2023-05-08T07:56:59;20.17;;;15.20;;
52043;SDS011;38053;53.100;6.078;2023-05-08T07:59:25;17.10;;;15.30;;
52043;SDS011;38053;53.100;6.078;2023-05-08T08:01:50;15.85;;;13.93;;
52043;SDS011;38053;53.100;6.078;2023-05-08T08:04:16;15.60;;;13.93;;
52043;SDS011;38053;53.100;6.078;2023-05-08T08:06:42;16.27;;;13.68;;
52043;SDS011;38053;53.100;6.078;2023-05-08T08:09:08;17.92;;;14.70;;
52043;SDS011;38053;53.100;6.078;2023-05-08T08:11:34;16.15;;;13.00;;
52043;SDS011;38053;53.100;6.078;2023-05-08T08:13:59;18.58;;;13.57;;
52043;SDS011;38053;53.100;6.078;2023-05-08T08:16:25;15.98;;;14.23;;
52043;SDS011;38053;53.100;6.078;2023-05-08T08:18:51;16.98;;;14.52;;
52043;SDS011;38053;53.100;6.078;2023-05-08T08:21:19;17.67;;;14.32;;
52043;SDS011;38053;53.100;6.078;2023-05-08T08:23:45;20.88;;;12.98;;
52043;SDS011;38053;53.100;6.078;2023-05-08T08:26:11;15.75;;;13.70;;
52043;SDS011;38053;53.100;6.078;2023-05-08T08:28:36;16.40;;;13.73;;
52043;SDS011;38053;53.100;6.078;2023-05-08T08:31:02;15.02;;;13.35;;
52043;SDS011;38053;53.100;6.078;2023-05-08T08:33:28;17.35;;;13.73;;
52043;SDS011;38053;53.100;6.078;2023-05-08T08:35:53;18.83;;;13.90;;
52043;SDS011;38053;53.100;6.078;2023-05-08T08:38:19;16.38;;;14.30;;
52043;SDS011;38053;53.100;6.078;2023-05-08T08:40:45;14.93;;;13.32;;
52043;SDS011;38053;53.100;6.078;2023-05-08T08:43:11;16.60;;;12.98;;
52043;SDS011;38053;53.100;6.078;2023-05-08T08:45:37;16.63;;;14.38;;
52043;SDS011;38053;53.100;6.078;2023-05-08T08:48:03;17.02;;;14.43;;
52043;SDS011;38053;53.100;6.078;2023-05-08T08:50:33;17.27;;;15.38;;
52043;SDS011;38053;53.100;6.078;2023-05-08T08:55:32;18.30;;;14.95;;
52043;SDS011;38053;53.100;6.078;2023-05-08T08:58:05;16.83;;;14.50;;
52043;SDS011;38053;53.100;6.078;2023-05-08T09:00:35;21.08;;;14.68;;
52043;SDS011;38053;53.100;6.078;2023-05-08T09:03:02;18.48;;;15.10;;
52043;SDS011;38053;53.100;6.078;2023-05-08T09:05:31;18.37;;;15.77;;
52043;SDS011;38053;53.100;6.078;2023-05-08T09:07:58;15.55;;;13.82;;
52043;SDS011;38053;53.100;6.078;2023-05-08T09:10:24;16.08;;;14.35;;
52043;SDS011;38053;53.100;6.078;2023-05-08T09:12:50;15.75;;;14.07;;
52043;SDS011;38053;53.100;6.078;2023-05-08T09:15:16;17.45;;;14.60;;
52043;SDS011;38053;53.100;6.078;2023-05-08T09:17:42;16.77;;;13.80;;
52043;SDS011;38053;53.100;6.078;2023-05-08T09:20:08;18.30;;;13.27;;
52043;SDS011;38053;53.100;6.078;2023-05-08T09:22:37;16.83;;;15.02;;
52043;SDS011;38053;53.100;6.078;2023-05-08T09:25:03;18.98;;;15.23;;
52043;SDS011;38053;53.100;6.078;2023-05-08T09:27:29;16.17;;;14.00;;
52043;SDS011;38053;53.100;6.078;2023-05-08T09:30:06;16.13;;;14.40;;
52043;SDS011;38053;53.100;6.078;2023-05-08T09:32:37;18.70;;;14.65;;
52043;SDS011;38053;53.100;6.078;2023-05-08T09:35:04;20.08;;;15.68;;
52043;SDS011;38053;53.100;6.078;2023-05-08T09:37:31;15.95;;;14.30;;
52043;SDS011;38053;53.100;6.078;2023-05-08T09:40:17;17.75;;;14.77;;
52043;SDS011;38053;53.100;6.078;2023-05-08T09:42:45;15.82;;;13.98;;
52043;SDS011;38053;53.100;6.078;2023-05-08T09:45:24;17.58;;;15.68;;
52043;SDS011;38053;53.100;6.078;2023-05-08T09:47:52;17.55;;;15.65;;
52043;SDS011;38053;53.100;6.078;2023-05-08T09:50:18;17.17;;;15.07;;
52043;SDS011;38053;53.100;6.078;2023-05-08T09:52:47;19.67;;;16.25;;
52043;SDS011;38053;53.100;6.078;2023-05-08T09:57:51;19.13;;;16.15;;
52043;SDS011;38053;53.100;6.078;2023-05-08T10:00:18;19.67;;;16.08;;
52043;SDS011;38053;53.100;6.078;2023-05-08T10:02:54;20.75;;;17.58;;
52043;SDS011;38053;53.100;6.078;2023-05-08T10:07:55;19.00;;;16.90;;
52043;SDS011;38053;53.100;6.078;2023-05-08T10:10:42;21.77;;;16.65;;
52043;SDS011;38053;53.100;6.078;2023-05-08T10:13:07;20.08;;;16.50;;
52043;SDS011;38053;53.100;6.078;2023-05-08T10:15:33;19.20;;;17.10;;
52043;SDS011;38053;53.100;6.078;2023-05-08T10:18:06;23.25;;;16.52;;
52043;SDS011;38053;53.100;6.078;2023-05-08T10:20:39;18.55;;;16.55;;
52043;SDS011;38053;53.100;6.078;2023-05-08T10:23:07;19.38;;;17.38;;
52043;SDS011;38053;53.100;6.078;2023-05-08T10:25:35;19.27;;;16.02;;
52043;SDS011;38053;53.100;6.078;2023-05-08T10:30:49;18.45;;;16.48;;
52043;SDS011;38053;53.100;6.078;2023-05-08T10:33:19;18.65;;;16.40;;
52043;SDS011;38053;53.100;6.078;2023-05-08T10:35:45;17.35;;;15.50;;
52043;SDS011;38053;53.100;6.078;2023-05-08T10:38:12;18.65;;;16.75;;
52043;SDS011;38053;53.100;6.078;2023-05-08T10:40:40;20.52;;;17.70;;
52043;SDS011;38053;53.100;6.078;2023-05-08T10:43:07;20.17;;;17.08;;
52043;SDS011;38053;53.100;6.078;2023-05-08T10:45:34;19.05;;;17.10;;
52043;SDS011;38053;53.100;6.078;2023-05-08T10:53:39;18.95;;;15.38;;
52043;SDS011;38053;53.100;6.078;2023-05-08T10:56:07;18.05;;;15.90;;
52043;SDS011;38053;53.100;6.078;2023-05-08T10:58:36;15.68;;;13.23;;
52043;SDS011;38053;53.100;6.078;2023-05-08T11:03:32;16.98;;;15.18;;
52043;SDS011;38053;53.100;6.078;2023-05-08T11:06:04;16.77;;;14.50;;
52043;SDS011;38053;53.100;6.078;2023-05-08T11:08:30;17.10;;;15.25;;
52043;SDS011;38053;53.100;6.078;2023-05-08T11:16:01;16.80;;;15.00;;
52043;SDS011;38053;53.100;6.078;2023-05-08T11:18:30;16.92;;;14.50;;
52043;SDS011;38053;53.100;6.078;2023-05-08T11:21:00;15.18;;;13.57;;
52043;SDS011;38053;53.100;6.078;2023-05-08T11:23:34;15.50;;;13.75;;
52043;SDS011;38053;53.100;6.078;2023-05-08T11:28:40;15.93;;;14.20;;
52043;SDS011;38053;53.100;6.078;2023-05-08T11:31:20;17.73;;;14.43;;
52043;SDS011;38053;53.100;6.078;2023-05-08T11:33:47;15.25;;;13.75;;
52043;SDS011;38053;53.100;6.078;2023-05-08T11:36:16;18.25;;;14.77;;
52043;SDS011;38053;53.100;6.078;2023-05-08T11:41:39;17.25;;;14.95;;
52043;SDS011;38053;53.100;6.078;2023-05-08T11:46:51;17.98;;;16.05;;
52043;SDS011;38053;53.100;6.078;2023-05-08T11:49:22;18.30;;;15.93;;
52043;SDS011;38053;53.100;6.078;2023-05-08T11:51:49;17.05;;;15.18;;
52043;SDS011;38053;53.100;6.078;2023-05-08T11:54:19;18.33;;;16.50;;
52043;SDS011;38053;53.100;6.078;2023-05-08T11:56:46;17.05;;;14.98;;
52043;SDS011;38053;53.100;6.078;2023-05-08T11:59:13;19.80;;;16.00;;
52043;SDS011;38053;53.100;6.078;2023-05-08T12:01:39;19.83;;;16.25;;
52043;SDS011;38053;53.100;6.078;2023-05-08T12:04:06;17.48;;;15.30;;
52043;SDS011;38053;53.100;6.078;2023-05-08T12:06:37;19.15;;;16.77;;
52043;SDS011;38053;53.100;6.078;2023-05-08T12:09:14;18.38;;;16.55;;
52043;SDS011;38053;53.100;6.078;2023-05-08T12:11:41;18.60;;;16.45;;
52043;SDS011;38053;53.100;6.078;2023-05-08T12:14:09;17.63;;;15.82;;
52043;SDS011;38053;53.100;6.078;2023-05-08T12:16:36;17.77;;;15.95;;
52043;SDS011;38053;53.100;6.078;2023-05-08T12:19:09;19.52;;;16.55;;
52043;SDS011;38053;53.100;6.078;2023-05-08T12:24:05;18.15;;;15.40;;
52043;SDS011;38053;53.100;6.078;2023-05-08T12:26:35;18.95;;;16.60;;
52043;SDS011;38053;53.100;6.078;2023-05-08T12:29:04;19.08;;;16.33;;
52043;SDS011;38053;53.100;6.078;2023-05-08T12:31:36;20.77;;;16.88;;
52043;SDS011;38053;53.100;6.078;2023-05-08T12:34:02;17.60;;;14.65;;
52043;SDS011;38053;53.100;6.078;2023-05-08T12:36:33;18.38;;;16.45;;
52043;SDS011;38053;53.100;6.078;2023-05-08T12:39:10;16.48;;;14.85;;
52043;SDS011;38053;53.100;6.078;2023-05-08T12:41:57;20.95;;;15.77;;
52043;SDS011;38053;53.100;6.078;2023-05-08T12:44:23;19.52;;;17.42;;
52043;SDS011;38053;53.100;6.078;2023-05-08T12:46:54;18.20;;;16.30;;
52043;SDS011;38053;53.100;6.078;2023-05-08T12:49:27;18.52;;;16.15;;
52043;SDS011;38053;53.100;6.078;2023-05-08T12:52:04;20.52;;;18.42;;
52043;SDS011;38053;53.100;6.078;2023-05-08T12:54:44;18.63;;;16.27;;
52043;SDS011;38053;53.100;6.078;2023-05-08T12:57:12;21.05;;;18.05;;
52043;SDS011;38053;53.100;6.078;2023-05-08T12:59:39;20.02;;;17.77;;
52043;SDS011;38053;53.100;6.078;2023-05-08T13:02:19;20.08;;;16.88;;
52043;SDS011;38053;53.100;6.078;2023-05-08T13:04:47;20.60;;;18.23;;
52043;SDS011;38053;53.100;6.078;2023-05-08T13:09:56;20.90;;;18.75;;
52043;SDS011;38053;53.100;6.078;2023-05-08T13:12:24;28.17;;;20.00;;
52043;SDS011;38053;53.100;6.078;2023-05-08T13:14:50;21.45;;;19.08;;
52043;SDS011;38053;53.100;6.078;2023-05-08T13:17:16;23.95;;;21.48;;
52043;SDS011;38053;53.100;6.078;2023-05-08T13:19:42;26.17;;;23.27;;
52043;SDS011;38053;53.100;6.078;2023-05-08T13:22:08;24.42;;;21.88;;
52043;SDS011;38053;53.100;6.078;2023-05-08T13:24:33;24.10;;;21.80;;
52043;SDS011;38053;53.100;6.078;2023-05-08T13:26:59;23.73;;;21.27;;
52043;SDS011;38053;53.100;6.078;2023-05-08T13:29:25;24.02;;;21.65;;
52043;SDS011;38053;53.100;6.078;2023-05-08T13:31:51;23.23;;;20.77;;
52043;SDS011;38053;53.100;6.078;2023-05-08T13:34:17;24.98;;;22.58;;
52043;SDS011;38053;53.100;6.078;2023-05-08T13:36:43;22.60;;;20.20;;
52043;SDS011;38053;53.100;6.078;2023-05-08T13:39:08;24.75;;;22.33;;
52043;SDS011;38053;53.100;6.078;2023-05-08T13:41:34;25.00;;;22.33;;
52043;SDS011;38053;53.100;6.078;2023-05-08T13:44:00;25.10;;;22.55;;
52043;SDS011;38053;53.100;6.078;2023-05-08T13:46:25;24.25;;;21.75;;
52043;SDS011;38053;53.100;6.078;2023-05-08T13:48:51;24.27;;;21.70;;
52043;SDS011;38053;53.100;6.078;2023-05-08T13:51:16;25.30;;;22.75;;
52043;SDS011;38053;53.100;6.078;2023-05-08T13:53:42;27.83;;;24.95;;
52043;SDS011;38053;53.100;6.078;2023-05-08T13:56:08;24.40;;;21.90;;
52043;SDS011;38053;53.100;6.078;2023-05-08T13:58:33;24.65;;;22.15;;
52043;SDS011;38053;53.100;6.078;2023-05-08T14:00:59;25.35;;;22.80;;
52043;SDS011;38053;53.100;6.078;2023-05-08T14:03:25;22.73;;;20.42;;
52043;SDS011;38053;53.100;6.078;2023-05-08T14:05:51;23.70;;;21.13;;
52043;SDS011;38053;53.100;6.078;2023-05-08T14:08:17;27.52;;;24.63;;
52043;SDS011;38053;53.100;6.078;2023-05-08T14:10:42;28.02;;;25.02;;
52043;SDS011;38053;53.100;6.078;2023-05-08T14:13:08;27.42;;;24.52;;
52043;SDS011;38053;53.100;6.078;2023-05-08T14:15:33;38.00;;;24.95;;
52043;SDS011;38053;53.100;6.078;2023-05-08T14:17:59;29.50;;;26.42;;
52043;SDS011;38053;53.100;6.078;2023-05-08T14:20:25;29.30;;;26.30;;
52043;SDS011;38053;53.100;6.078;2023-05-08T14:22:50;29.77;;;26.67;;
52043;SDS011;38053;53.100;6.078;2023-05-08T14:25:16;30.60;;;25.55;;
52043;SDS011;38053;53.100;6.078;2023-05-08T14:27:42;32.25;;;27.55;;
52043;SDS011;38053;53.100;6.078;2023-05-08T14:30:08;38.25;;;34.25;;
52043;SDS011;38053;53.100;6.078;2023-05-08T14:32:34;40.65;;;36.40;;
52043;SDS011;38053;53.100;6.078;2023-05-08T14:34:59;42.90;;;38.38;;
52043;SDS011;38053;53.100;6.078;2023-05-08T14:37:25;46.17;;;41.30;;
52043;SDS011;38053;53.100;6.078;2023-05-08T14:39:51;60.85;;;43.00;;
52043;SDS011;38053;53.100;6.078;2023-05-08T14:42:18;48.67;;;42.88;;
52043;SDS011;38053;53.100;6.078;2023-05-08T14:44:44;53.90;;;44.33;;
52043;SDS011;38053;53.100;6.078;2023-05-08T14:47:10;47.70;;;42.65;;
52043;SDS011;38053;53.100;6.078;2023-05-08T14:49:35;46.53;;;39.95;;
52043;SDS011;38053;53.100;6.078;2023-05-08T14:52:01;41.67;;;37.20;;
52043;SDS011;38053;53.100;6.078;2023-05-08T14:54:27;41.72;;;37.50;;
52043;SDS011;38053;53.100;6.078;2023-05-08T14:56:52;40.33;;;36.03;;
52043;SDS011;38053;53.100;6.078;2023-05-08T14:59:18;42.05;;;37.58;;
52043;SDS011;38053;53.100;6.078;2023-05-08T15:01:44;42.42;;;38.05;;
52043;SDS011;38053;53.100;6.078;2023-05-08T15:04:09;43.00;;;38.40;;
52043;SDS011;38053;53.100;6.078;2023-05-08T15:06:36;44.00;;;39.20;;
52043;SDS011;38053;53.100;6.078;2023-05-08T15:09:04;44.97;;;40.33;;
52043;SDS011;38053;53.100;6.078;2023-05-08T15:11:32;43.80;;;39.03;;
52043;SDS011;38053;53.100;6.078;2023-05-08T15:13:57;44.08;;;39.63;;
52043;SDS011;38053;53.100;6.078;2023-05-08T15:16:25;45.30;;;40.30;;
52043;SDS011;38053;53.100;6.078;2023-05-08T15:18:51;44.85;;;39.97;;
52043;SDS011;38053;53.100;6.078;2023-05-08T15:21:17;39.72;;;35.65;;
52043;SDS011;38053;53.100;6.078;2023-05-08T15:23:44;36.65;;;32.92;;
52043;SDS011;38053;53.100;6.078;2023-05-08T15:26:10;32.63;;;28.83;;
52043;SDS011;38053;53.100;6.078;2023-05-08T15:28:36;33.35;;;28.95;;
52043;SDS011;38053;53.100;6.078;2023-05-08T15:31:04;32.00;;;28.40;;
52043;SDS011;38053;53.100;6.078;2023-05-08T15:33:30;32.10;;;27.08;;
52043;SDS011;38053;53.100;6.078;2023-05-08T15:35:55;31.50;;;26.73;;
52043;SDS011;38053;53.100;6.078;2023-05-08T15:38:22;31.05;;;27.73;;
52043;SDS011;38053;53.100;6.078;2023-05-08T15:40:48;32.35;;;27.63;;
52043;SDS011;38053;53.100;6.078;2023-05-08T15:43:14;34.22;;;30.63;;
52043;SDS011;38053;53.100;6.078;2023-05-08T15:45:40;32.53;;;28.98;;